Time;durP1;ratioP1;P1;durP2;ratioP2;P2;SDS_P1;SDS_P2;PMS_P1;PMS_P2;Temp;Humidity;BMP_temperature;BMP_pressure;BME280_temperature;BME280_humidity;BME280_pressure;Samples;Min_cycle;Max_cycle;Signal;HPM_P1;HPM_P2
2023/08/21 00:00:48;0.00;0.00;0.62;0.00;0.00;0.62;3.20;2.13;;;34.10;30.50;;;;;;2221038;62;20373;-61
2023/08/21 00:03:32;0.00;0.00;0.62;0.00;0.00;0.62;2.40;2.10;;;34.10;30.40;;;;;;2220553;62;20423;-61
2023/08/21 00:06:16;0.00;0.00;0.62;0.00;0.00;0.62;2.40;2.20;;;34.10;30.40;;;;;;2220336;62;20374;-61
2023/08/21 00:09:03;0.00;0.00;0.62;0.00;0.00;0.62;2.60;2.13;;;34.10;30.40;;;;;;2220908;62;20406;-61
2023/08/21 00:11:47;0.00;0.00;0.62;0.00;0.00;0.62;3.60;2.70;;;34.10;30.50;;;;;;2220810;62;20403;-61
2023/08/21 00:14:32;0.00;0.00;0.62;0.00;0.00;0.62;3.60;2.57;;;34.10;30.40;;;;;;2219912;62;20388;-62
2023/08/21 00:17:16;0.00;0.00;0.62;0.00;0.00;0.62;2.57;2.30;;;34.10;30.40;;;;;;2220863;62;20458;-62
2023/08/21 00:20:02;0.00;0.00;0.62;0.00;0.00;0.62;3.70;2.70;;;34.10;30.40;;;;;;2220564;62;20874;-62
2023/08/21 00:22:47;0.00;0.00;0.62;0.00;0.00;0.62;2.43;2.07;;;34.10;30.40;;;;;;2220810;62;20792;-62
2023/08/21 00:25:33;0.00;0.00;0.62;0.00;0.00;0.62;2.67;2.10;;;34.10;30.40;;;;;;2220949;62;20386;-62
2023/08/21 00:28:18;0.00;0.00;0.62;0.00;0.00;0.62;2.13;1.60;;;34.00;30.40;;;;;;2220259;62;20442;-62
2023/08/21 00:31:03;0.00;0.00;0.62;0.00;0.00;0.62;4.93;2.20;;;34.00;30.40;;;;;;2220869;62;20775;-62
2023/08/21 00:33:48;0.00;0.00;0.62;0.00;0.00;0.62;3.53;2.40;;;34.00;30.40;;;;;;2220002;62;20393;-65
2023/08/21 00:36:32;0.00;0.00;0.62;0.00;0.00;0.62;3.20;2.57;;;34.00;30.40;;;;;;2220069;62;20457;-62
2023/08/21 00:39:17;0.00;0.00;0.62;0.00;0.00;0.62;2.70;2.33;;;34.00;30.40;;;;;;2221027;62;20400;-67
2023/08/21 00:42:03;0.00;0.00;0.62;0.00;0.00;0.62;3.00;2.43;;;34.00;30.40;;;;;;2219994;62;20394;-61
2023/08/21 00:44:47;0.00;0.00;0.62;0.00;0.00;0.62;2.50;2.30;;;34.00;30.40;;;;;;2220247;62;20390;-62
2023/08/21 00:47:32;0.00;0.00;0.62;0.00;0.00;0.62;2.90;2.37;;;34.00;30.40;;;;;;2220735;62;20915;-62
2023/08/21 00:50:17;0.00;0.00;0.62;0.00;0.00;0.62;2.77;2.53;;;34.00;30.40;;;;;;2220295;62;20527;-62
2023/08/21 00:53:06;0.00;0.00;0.62;0.00;0.00;0.62;2.80;1.90;;;34.00;30.40;;;;;;2220457;62;20370;-63
2023/08/21 00:55:52;0.00;0.00;0.62;0.00;0.00;0.62;2.40;2.20;;;33.90;30.30;;;;;;2220901;62;20395;-62
2023/08/21 00:58:38;0.00;0.00;0.62;0.00;0.00;0.62;2.60;2.40;;;33.90;30.30;;;;;;2220331;62;20907;-62
2023/08/21 01:01:27;0.00;0.00;0.62;0.00;0.00;0.62;2.83;2.20;;;33.90;30.30;;;;;;2220712;62;20439;-62
2023/08/21 01:04:11;0.00;0.00;0.62;0.00;0.00;0.62;2.30;2.10;;;33.90;30.30;;;;;;2220159;62;20847;-62
2023/08/21 01:06:57;0.00;0.00;0.62;0.00;0.00;0.62;2.07;1.87;;;33.90;30.30;;;;;;2220517;62;20480;-66
2023/08/21 01:09:54;0.00;0.00;0.62;0.00;0.00;0.62;3.20;2.37;;;33.90;30.30;;;;;;2220693;62;20870;-62
2023/08/21 01:12:50;0.00;0.00;0.62;0.00;0.00;0.62;2.60;2.17;;;33.90;30.30;;;;;;2219585;62;20369;-62
2023/08/21 01:15:38;0.00;0.00;0.62;0.00;0.00;0.62;2.20;2.00;;;33.90;30.30;;;;;;2220451;62;20482;-62
2023/08/21 01:18:26;0.00;0.00;0.62;0.00;0.00;0.62;3.27;2.30;;;33.90;30.30;;;;;;2220796;62;20507;-62
2023/08/21 01:21:12;0.00;0.00;0.62;0.00;0.00;0.62;2.10;1.90;;;33.90;30.30;;;;;;2219583;62;20378;-62
2023/08/21 01:23:58;0.00;0.00;0.62;0.00;0.00;0.62;3.43;2.30;;;33.90;30.30;;;;;;2219724;62;20411;-62
2023/08/21 01:26:43;0.00;0.00;0.62;0.00;0.00;0.62;2.27;1.90;;;33.90;30.30;;;;;;2220072;62;20382;-62
2023/08/21 01:29:28;0.00;0.00;0.62;0.00;0.00;0.62;2.47;2.00;;;33.90;30.30;;;;;;2220347;62;20398;-62
2023/08/21 01:32:21;0.00;0.00;0.62;0.00;0.00;0.62;2.27;1.93;;;33.80;30.90;;;;;;2220091;62;20377;-62
2023/08/21 01:35:09;0.00;0.00;0.62;0.00;0.00;0.62;2.90;2.10;;;33.80;30.20;;;;;;2219584;62;20425;-62
2023/08/21 01:37:54;0.00;0.00;0.62;0.00;0.00;0.62;2.50;2.23;;;33.80;30.20;;;;;;2219895;62;20446;-62
2023/08/21 01:40:41;0.00;0.00;0.62;0.00;0.00;0.62;2.10;1.90;;;33.80;30.20;;;;;;2232733;59;20870;-66
2023/08/21 01:43:26;0.00;0.00;0.62;0.00;0.00;0.62;2.20;1.70;;;33.80;30.20;;;;;;2216307;62;20967;-62
2023/08/21 01:46:12;0.00;0.00;0.62;0.00;0.00;0.62;2.07;1.87;;;33.80;30.20;;;;;;2220490;62;20382;-62
2023/08/21 01:48:57;0.00;0.00;0.62;0.00;0.00;0.62;2.13;1.83;;;33.80;30.20;;;;;;2219716;62;20554;-62
2023/08/21 01:51:41;0.00;0.00;0.62;0.00;0.00;0.62;2.73;2.20;;;33.80;30.20;;;;;;2220551;62;20370;-62
2023/08/21 01:54:26;0.00;0.00;0.62;0.00;0.00;0.62;2.40;2.20;;;33.80;30.20;;;;;;2220191;62;20393;-62
2023/08/21 01:57:11;0.00;0.00;0.62;0.00;0.00;0.62;2.30;1.90;;;33.80;30.10;;;;;;2220015;62;20393;-62
2023/08/21 01:59:56;0.00;0.00;0.62;0.00;0.00;0.62;3.33;1.90;;;33.80;30.20;;;;;;2220017;62;20370;-61
2023/08/21 02:02:40;0.00;0.00;0.62;0.00;0.00;0.62;1.90;1.70;;;33.80;30.10;;;;;;2220491;62;20395;-62
2023/08/21 02:05:26;0.00;0.00;0.62;0.00;0.00;0.62;2.50;2.10;;;33.70;30.10;;;;;;2219736;62;20386;-62
2023/08/21 02:08:13;0.00;0.00;0.62;0.00;0.00;0.62;2.50;2.30;;;33.70;30.10;;;;;;2220097;62;20476;-65
2023/08/21 02:10:58;0.00;0.00;0.62;0.00;0.00;0.62;2.90;2.17;;;33.70;30.10;;;;;;2219689;62;20371;-60
2023/08/21 02:13:44;0.00;0.00;0.62;0.00;0.00;0.62;1.90;1.70;;;33.70;30.10;;;;;;2220009;62;20422;-62
2023/08/21 02:16:29;0.00;0.00;0.62;0.00;0.00;0.62;3.60;2.30;;;33.70;30.10;;;;;;2219876;62;20806;-62
2023/08/21 02:19:13;0.00;0.00;0.62;0.00;0.00;0.62;2.53;2.00;;;33.70;30.10;;;;;;2219847;62;20906;-64
2023/08/21 02:21:58;0.00;0.00;0.62;0.00;0.00;0.62;2.07;1.80;;;33.70;30.10;;;;;;2220581;62;20994;-62
2023/08/21 02:24:43;0.00;0.00;0.62;0.00;0.00;0.62;2.27;1.90;;;33.70;30.10;;;;;;2220133;62;20471;-62
2023/08/21 02:27:27;0.00;0.00;0.62;0.00;0.00;0.62;2.00;1.67;;;33.70;30.10;;;;;;2219971;62;20420;-62
2023/08/21 02:30:13;0.00;0.00;0.62;0.00;0.00;0.62;2.10;1.50;;;33.70;30.10;;;;;;2220604;62;20948;-62
2023/08/21 02:32:58;0.00;0.00;0.62;0.00;0.00;0.62;2.20;1.67;;;33.60;30.00;;;;;;2220196;62;20407;-63
2023/08/21 02:35:42;0.00;0.00;0.62;0.00;0.00;0.62;2.00;1.80;;;33.60;30.00;;;;;;2220379;62;20951;-61
2023/08/21 02:38:27;0.00;0.00;0.62;0.00;0.00;0.62;1.97;1.53;;;33.60;30.00;;;;;;2220361;62;20386;-61
2023/08/21 02:41:11;0.00;0.00;0.62;0.00;0.00;0.62;2.60;1.90;;;33.60;30.00;;;;;;2219952;62;20737;-60
2023/08/21 02:43:56;0.00;0.00;0.62;0.00;0.00;0.62;2.00;1.50;;;33.60;30.00;;;;;;2220095;62;20463;-60
2023/08/21 02:46:42;0.00;0.00;0.62;0.00;0.00;0.62;3.40;2.00;;;33.60;30.00;;;;;;2220464;62;20855;-59
2023/08/21 02:49:26;0.00;0.00;0.62;0.00;0.00;0.62;1.83;1.60;;;33.60;30.00;;;;;;2219801;62;20417;-59
2023/08/21 02:52:11;0.00;0.00;0.62;0.00;0.00;0.62;1.87;1.67;;;33.60;30.00;;;;;;2219991;62;20430;-61
2023/08/21 02:54:55;0.00;0.00;0.62;0.00;0.00;0.62;2.60;1.63;;;33.60;30.00;;;;;;2219502;62;20394;-61
2023/08/21 02:57:41;0.00;0.00;0.62;0.00;0.00;0.62;2.37;1.90;;;33.60;30.70;;;;;;2220270;62;20408;-61
2023/08/21 03:00:27;0.00;0.00;0.62;0.00;0.00;0.62;2.13;1.60;;;33.60;30.00;;;;;;2220181;62;20458;-62
2023/08/21 03:03:13;0.00;0.00;0.62;0.00;0.00;0.62;2.00;1.70;;;33.60;30.00;;;;;;2218767;62;20401;-60
2023/08/21 03:05:58;0.00;0.00;0.62;0.00;0.00;0.62;2.20;1.90;;;33.60;30.00;;;;;;2220402;62;20438;-62
2023/08/21 03:08:43;0.00;0.00;0.62;0.00;0.00;0.62;2.30;1.90;;;33.60;30.00;;;;;;2220860;62;20910;-58
2023/08/21 03:11:28;0.00;0.00;0.62;0.00;0.00;0.62;2.17;1.53;;;33.50;30.00;;;;;;2220462;62;20474;-62
2023/08/21 03:14:12;0.00;0.00;0.62;0.00;0.00;0.62;2.20;1.60;;;33.50;30.00;;;;;;2220742;62;20421;-62
2023/08/21 03:16:57;0.00;0.00;0.62;0.00;0.00;0.62;2.77;1.73;;;33.50;30.00;;;;;;2220484;62;20374;-62
2023/08/21 03:19:43;0.00;0.00;0.62;0.00;0.00;0.62;1.83;1.47;;;33.50;30.00;;;;;;2220290;62;20600;-62
2023/08/21 03:22:27;0.00;0.00;0.62;0.00;0.00;0.62;2.10;1.70;;;33.50;30.00;;;;;;2220761;62;20430;-62
2023/08/21 03:25:12;0.00;0.00;0.62;0.00;0.00;0.62;2.13;1.40;;;33.50;30.00;;;;;;2220136;62;20433;-63
2023/08/21 03:27:57;0.00;0.00;0.62;0.00;0.00;0.62;3.23;1.50;;;33.50;30.00;;;;;;2220538;62;20366;-61
2023/08/21 03:30:42;0.00;0.00;0.62;0.00;0.00;0.62;1.70;1.30;;;33.40;29.90;;;;;;2220962;62;20985;-60
2023/08/21 03:33:26;0.00;0.00;0.62;0.00;0.00;0.62;2.80;1.30;;;33.50;30.00;;;;;;2220248;62;20921;-60
2023/08/21 03:36:12;0.00;0.00;0.62;0.00;0.00;0.62;2.00;1.60;;;33.40;30.00;;;;;;2220929;62;20895;-62
2023/08/21 03:38:57;0.00;0.00;0.62;0.00;0.00;0.62;2.40;1.60;;;33.40;29.90;;;;;;2220930;62;20482;-61
2023/08/21 03:41:43;0.00;0.00;0.62;0.00;0.00;0.62;2.80;1.70;;;33.40;29.90;;;;;;2219930;62;20433;-59
2023/08/21 03:44:28;0.00;0.00;0.62;0.00;0.00;0.62;2.57;1.70;;;33.40;29.90;;;;;;2216542;62;20394;-61
2023/08/21 03:47:13;0.00;0.00;0.62;0.00;0.00;0.62;1.90;1.53;;;33.40;29.90;;;;;;2220729;62;20953;-61
2023/08/21 03:50:09;0.00;0.00;0.62;0.00;0.00;0.62;2.67;1.27;;;33.40;29.90;;;;;;2220302;62;20406;-60
2023/08/21 03:52:56;0.00;0.00;0.62;0.00;0.00;0.62;2.17;1.57;;;33.40;29.90;;;;;;2219927;62;20370;-59
2023/08/21 03:55:41;0.00;0.00;0.62;0.00;0.00;0.62;1.90;1.70;;;33.40;29.90;;;;;;2219872;62;20397;-61
2023/08/21 03:58:27;0.00;0.00;0.62;0.00;0.00;0.62;2.17;1.40;;;33.40;29.90;;;;;;2220556;62;20415;-61
2023/08/21 04:01:11;0.00;0.00;0.62;0.00;0.00;0.62;2.00;1.50;;;33.40;29.90;;;;;;2220636;62;20374;-61
2023/08/21 04:03:56;0.00;0.00;0.62;0.00;0.00;0.62;2.20;1.50;;;33.30;29.90;;;;;;2219607;62;20370;-63
2023/08/21 04:06:41;0.00;0.00;0.62;0.00;0.00;0.62;2.23;1.63;;;33.30;29.80;;;;;;2220779;62;20427;-63
2023/08/21 04:09:27;0.00;0.00;0.62;0.00;0.00;0.62;1.93;1.47;;;33.30;29.80;;;;;;2220507;62;20393;-63
2023/08/21 04:12:12;0.00;0.00;0.62;0.00;0.00;0.62;2.93;2.03;;;33.30;29.80;;;;;;2220766;62;20410;-61
2023/08/21 04:14:57;0.00;0.00;0.62;0.00;0.00;0.62;2.70;1.67;;;33.30;29.90;;;;;;2220489;62;20435;-62
2023/08/21 04:17:42;0.00;0.00;0.62;0.00;0.00;0.62;1.60;1.20;;;33.30;29.80;;;;;;2220052;62;20399;-66
2023/08/21 04:20:26;0.00;0.00;0.62;0.00;0.00;0.62;2.50;1.60;;;33.30;29.90;;;;;;2220497;62;20418;-62
2023/08/21 04:23:11;0.00;0.00;0.62;0.00;0.00;0.62;2.20;1.53;;;33.30;29.80;;;;;;2220413;62;20430;-62
2023/08/21 04:26:02;0.00;0.00;0.62;0.00;0.00;0.62;2.03;1.50;;;33.30;29.80;;;;;;2220139;62;20393;-63
2023/08/21 04:28:47;0.00;0.00;0.62;0.00;0.00;0.62;1.80;1.40;;;33.30;29.90;;;;;;2220161;62;20398;-61
2023/08/21 04:31:32;0.00;0.00;0.62;0.00;0.00;0.62;3.90;1.50;;;33.20;29.80;;;;;;2220060;62;20377;-60
2023/08/21 04:34:18;0.00;0.00;0.62;0.00;0.00;0.62;1.50;1.10;;;33.20;29.80;;;;;;2219559;62;20433;-61
2023/08/21 04:37:04;0.00;0.00;0.62;0.00;0.00;0.62;2.00;1.30;;;33.20;29.80;;;;;;2220784;62;20405;-59
2023/08/21 04:39:51;0.00;0.00;0.62;0.00;0.00;0.62;2.77;1.23;;;33.20;29.80;;;;;;2219539;62;20968;-60
2023/08/21 04:42:37;0.00;0.00;0.62;0.00;0.00;0.62;1.80;1.37;;;33.20;29.80;;;;;;2220281;62;20823;-62
2023/08/21 04:45:22;0.00;0.00;0.62;0.00;0.00;0.62;2.00;1.60;;;33.20;29.80;;;;;;2220011;62;20769;-60
2023/08/21 04:48:07;0.00;0.00;0.62;0.00;0.00;0.62;1.70;1.20;;;33.20;29.90;;;;;;2219739;62;20461;-60
2023/08/21 04:50:52;0.00;0.00;0.62;0.00;0.00;0.62;1.90;1.53;;;33.20;29.80;;;;;;2220218;62;20378;-60
2023/08/21 04:53:37;0.00;0.00;0.62;0.00;0.00;0.62;2.60;1.50;;;33.20;29.90;;;;;;2219623;62;20862;-62
2023/08/21 04:56:25;0.00;0.00;0.62;0.00;0.00;0.62;1.70;1.40;;;33.20;29.80;;;;;;2220439;62;20369;-60
2023/08/21 04:59:12;0.00;0.00;0.62;0.00;0.00;0.62;2.67;1.30;;;33.20;29.90;;;;;;2220407;62;20765;-62
2023/08/21 05:01:57;0.00;0.00;0.62;0.00;0.00;0.62;2.53;1.43;;;33.20;29.90;;;;;;2219422;62;20947;-61
2023/08/21 05:04:41;0.00;0.00;0.62;0.00;0.00;0.62;2.27;1.70;;;33.20;29.90;;;;;;2219984;62;20433;-61
2023/08/21 05:07:27;0.00;0.00;0.62;0.00;0.00;0.62;2.60;1.30;;;33.20;29.90;;;;;;2220330;62;20378;-62
2023/08/21 05:10:12;0.00;0.00;0.62;0.00;0.00;0.62;2.00;1.23;;;33.20;29.90;;;;;;2219609;62;20458;-62
2023/08/21 05:12:58;0.00;0.00;0.62;0.00;0.00;0.62;2.97;1.40;;;33.20;29.90;;;;;;2220385;62;20512;-61
2023/08/21 05:15:44;0.00;0.00;0.62;0.00;0.00;0.62;2.20;1.30;;;33.20;29.90;;;;;;2220009;62;20390;-65
2023/08/21 05:18:31;0.00;0.00;0.62;0.00;0.00;0.62;2.03;1.50;;;33.10;29.80;;;;;;2220083;62;20374;-62
2023/08/21 05:21:15;0.00;0.00;0.62;0.00;0.00;0.62;2.80;1.40;;;33.10;29.80;;;;;;2220283;62;20899;-61
2023/08/21 05:24:01;0.00;0.00;0.62;0.00;0.00;0.62;1.60;1.23;;;33.10;29.80;;;;;;2219029;62;20913;-62
2023/08/21 05:26:46;0.00;0.00;0.62;0.00;0.00;0.62;1.80;1.00;;;33.10;29.80;;;;;;2220405;62;20520;-62
2023/08/21 05:29:31;0.00;0.00;0.62;0.00;0.00;0.62;2.37;1.40;;;33.10;29.80;;;;;;2220229;62;20488;-62
2023/08/21 05:32:17;0.00;0.00;0.62;0.00;0.00;0.62;2.40;1.50;;;33.10;29.80;;;;;;2219577;62;20799;-62
2023/08/21 05:35:03;0.00;0.00;0.62;0.00;0.00;0.62;3.00;1.60;;;33.10;29.80;;;;;;2219837;62;20394;-63
2023/08/21 05:37:49;0.00;0.00;0.62;0.00;0.00;0.62;1.97;1.20;;;33.10;29.80;;;;;;2220214;62;20440;-62
2023/08/21 05:40:34;0.00;0.00;0.62;0.00;0.00;0.62;3.73;1.30;;;33.10;29.80;;;;;;2219836;62;20967;-62
2023/08/21 05:43:19;0.00;0.00;0.62;0.00;0.00;0.62;2.17;1.30;;;33.10;29.80;;;;;;2219700;62;20393;-62
2023/08/21 05:46:06;0.00;0.00;0.62;0.00;0.00;0.62;2.03;1.40;;;33.10;29.80;;;;;;2219378;62;21245;-63
2023/08/21 05:48:52;0.00;0.00;0.62;0.00;0.00;0.62;1.90;1.50;;;33.10;29.80;;;;;;2220187;62;20397;-59
2023/08/21 05:51:37;0.00;0.00;0.62;0.00;0.00;0.62;2.03;1.50;;;33.10;29.80;;;;;;2220134;62;20903;-61
2023/08/21 05:54:21;0.00;0.00;0.62;0.00;0.00;0.62;3.00;1.73;;;33.10;29.80;;;;;;2219342;62;20427;-63
2023/08/21 05:57:06;0.00;0.00;0.62;0.00;0.00;0.62;2.10;1.50;;;33.10;29.80;;;;;;2220053;62;20378;-63
2023/08/21 05:59:51;0.00;0.00;0.62;0.00;0.00;0.62;3.13;1.53;;;33.10;29.80;;;;;;2220664;62;20419;-61
2023/08/21 06:02:36;0.00;0.00;0.62;0.00;0.00;0.62;2.00;1.57;;;33.10;29.80;;;;;;2220159;62;20407;-63
2023/08/21 06:05:22;0.00;0.00;0.62;0.00;0.00;0.62;3.23;1.90;;;33.00;29.80;;;;;;2219723;62;20846;-63
2023/08/21 06:08:09;0.00;0.00;0.62;0.00;0.00;0.62;2.57;1.70;;;33.00;29.80;;;;;;2219483;62;20378;-63
2023/08/21 06:10:54;0.00;0.00;0.62;0.00;0.00;0.62;2.07;1.37;;;33.00;29.80;;;;;;2219955;62;20407;-62
2023/08/21 06:13:39;0.00;0.00;0.62;0.00;0.00;0.62;3.33;1.90;;;33.00;29.80;;;;;;2219884;62;20439;-62
2023/08/21 06:16:24;0.00;0.00;0.62;0.00;0.00;0.62;1.90;1.47;;;33.00;29.80;;;;;;2219484;62;20861;-62
2023/08/21 06:19:08;0.00;0.00;0.62;0.00;0.00;0.62;2.33;1.50;;;33.00;29.80;;;;;;2220108;62;20758;-60
2023/08/21 06:21:54;0.00;0.00;0.62;0.00;0.00;0.62;1.93;1.63;;;33.00;29.80;;;;;;2220514;62;20382;-63
2023/08/21 06:24:39;0.00;0.00;0.62;0.00;0.00;0.62;2.77;1.40;;;33.00;29.80;;;;;;2218868;62;20425;-62
2023/08/21 06:27:28;0.00;0.00;0.62;0.00;0.00;0.62;2.37;1.80;;;33.10;29.80;;;;;;2220182;62;20383;-63
2023/08/21 06:30:13;0.00;0.00;0.62;0.00;0.00;0.62;1.87;1.53;;;33.00;29.80;;;;;;2219417;62;20401;-64
2023/08/21 06:32:58;0.00;0.00;0.62;0.00;0.00;0.62;2.63;1.70;;;33.00;29.80;;;;;;2220680;62;20410;-61
2023/08/21 06:35:44;0.00;0.00;0.62;0.00;0.00;0.62;2.20;1.90;;;33.00;29.80;;;;;;2220088;62;20459;-61
2023/08/21 06:38:30;0.00;0.00;0.62;0.00;0.00;0.62;2.73;2.00;;;33.00;29.80;;;;;;2219792;62;20433;-63
2023/08/21 06:41:14;0.00;0.00;0.62;0.00;0.00;0.62;2.67;1.93;;;33.00;29.80;;;;;;2220688;62;20889;-60
2023/08/21 06:44:00;0.00;0.00;0.62;0.00;0.00;0.62;2.10;1.47;;;33.00;29.90;;;;;;2220180;62;20381;-59
2023/08/21 06:46:47;0.00;0.00;0.62;0.00;0.00;0.62;3.10;1.70;;;33.00;29.80;;;;;;2220158;62;20378;-60
2023/08/21 06:49:32;0.00;0.00;0.62;0.00;0.00;0.62;2.30;1.70;;;33.00;29.80;;;;;;2220757;62;20950;-62
2023/08/21 06:52:17;0.00;0.00;0.62;0.00;0.00;0.62;4.17;1.90;;;33.00;29.80;;;;;;2220834;62;20948;-59
2023/08/21 06:55:04;0.00;0.00;0.62;0.00;0.00;0.62;2.03;1.70;;;33.00;29.90;;;;;;2220893;62;20429;-61
2023/08/21 06:57:49;0.00;0.00;0.62;0.00;0.00;0.62;2.60;1.90;;;33.00;29.80;;;;;;2221056;62;20378;-61
2023/08/21 07:00:33;0.00;0.00;0.62;0.00;0.00;0.62;3.10;1.80;;;33.00;29.80;;;;;;2220625;62;20427;-62
2023/08/21 07:03:18;0.00;0.00;0.62;0.00;0.00;0.62;4.63;1.87;;;33.00;29.90;;;;;;2220863;62;20373;-58
2023/08/21 07:06:03;0.00;0.00;0.62;0.00;0.00;0.62;2.10;1.73;;;33.00;29.90;;;;;;2221145;62;20992;-59
2023/08/21 07:08:47;0.00;0.00;0.62;0.00;0.00;0.62;2.30;1.70;;;33.00;29.90;;;;;;2219987;62;20445;-61
2023/08/21 07:11:33;0.00;0.00;0.62;0.00;0.00;0.62;2.20;1.30;;;33.00;29.90;;;;;;2221447;62;20394;-59
2023/08/21 07:14:19;0.00;0.00;0.62;0.00;0.00;0.62;2.30;1.93;;;33.00;29.90;;;;;;2220157;62;20394;-61
2023/08/21 07:17:04;0.00;0.00;0.62;0.00;0.00;0.62;2.70;1.70;;;33.00;29.90;;;;;;2221298;62;20407;-61
2023/08/21 07:19:52;0.00;0.00;0.62;0.00;0.00;0.62;2.27;1.70;;;33.00;29.90;;;;;;2221038;62;20383;-60
2023/08/21 07:22:36;0.00;0.00;0.62;0.00;0.00;0.62;2.37;1.50;;;33.00;29.90;;;;;;2220407;62;20405;-61
2023/08/21 07:25:21;0.00;0.00;0.62;0.00;0.00;0.62;1.77;1.30;;;33.00;29.90;;;;;;2220717;62;20394;-60
2023/08/21 07:28:07;0.00;0.00;0.62;0.00;0.00;0.62;3.20;1.57;;;33.00;29.90;;;;;;2220883;62;20417;-62
2023/08/21 07:30:55;0.00;0.00;0.62;0.00;0.00;0.62;2.53;1.97;;;33.00;29.90;;;;;;2220383;62;20414;-66
2023/08/21 07:33:40;0.00;0.00;0.62;0.00;0.00;0.62;2.00;1.53;;;33.00;29.90;;;;;;2220631;62;20374;-61
2023/08/21 07:36:25;0.00;0.00;0.62;0.00;0.00;0.62;2.63;1.60;;;33.00;29.90;;;;;;2220855;62;20366;-62
2023/08/21 07:39:09;0.00;0.00;0.62;0.00;0.00;0.62;2.37;1.47;;;33.00;29.90;;;;;;2220977;62;20891;-60
2023/08/21 07:41:54;0.00;0.00;0.62;0.00;0.00;0.62;2.07;1.43;;;33.00;29.90;;;;;;2220673;62;20395;-61
2023/08/21 07:44:40;0.00;0.00;0.62;0.00;0.00;0.62;2.50;1.50;;;33.00;29.90;;;;;;2219852;62;20410;-59
2023/08/21 07:47:27;0.00;0.00;0.62;0.00;0.00;0.62;1.90;1.40;;;33.00;29.90;;;;;;2220798;62;20414;-61
2023/08/21 07:50:14;0.00;0.00;0.62;0.00;0.00;0.62;1.70;1.33;;;33.00;29.90;;;;;;2220929;62;20397;-61
2023/08/21 07:52:58;0.00;0.00;0.62;0.00;0.00;0.62;1.60;1.20;;;33.00;29.80;;;;;;2219855;62;20929;-61
2023/08/21 07:55:43;0.00;0.00;0.62;0.00;0.00;0.62;1.97;1.50;;;33.00;29.90;;;;;;2220916;62;20943;-61
2023/08/21 07:58:28;0.00;0.00;0.62;0.00;0.00;0.62;1.77;1.50;;;33.00;29.90;;;;;;2220973;62;20497;-61
2023/08/21 08:01:14;0.00;0.00;0.62;0.00;0.00;0.62;2.00;1.60;;;33.00;29.80;;;;;;2220708;62;20378;-61
2023/08/21 08:03:58;0.00;0.00;0.62;0.00;0.00;0.62;3.30;1.60;;;33.00;29.80;;;;;;2220528;62;20415;-61
2023/08/21 08:06:43;0.00;0.00;0.62;0.00;0.00;0.62;3.40;1.77;;;33.00;29.80;;;;;;2220338;62;20466;-62
2023/08/21 08:09:27;0.00;0.00;0.62;0.00;0.00;0.62;2.90;1.90;;;33.00;29.80;;;;;;2221008;62;20454;-61
2023/08/21 08:12:12;0.00;0.00;0.62;0.00;0.00;0.62;2.10;1.57;;;33.00;29.80;;;;;;2220858;62;20374;-60
2023/08/21 08:14:57;0.00;0.00;0.62;0.00;0.00;0.62;3.17;1.50;;;33.00;29.80;;;;;;2219913;62;20394;-61
2023/08/21 08:17:43;0.00;0.00;0.62;0.00;0.00;0.62;2.97;1.67;;;33.00;29.80;;;;;;2220794;62;20377;-61
2023/08/21 08:20:27;0.00;0.00;0.62;0.00;0.00;0.62;2.13;1.50;;;33.00;29.80;;;;;;2220979;62;20426;-61
2023/08/21 08:23:12;0.00;0.00;0.62;0.00;0.00;0.62;1.80;1.50;;;33.00;29.80;;;;;;2220147;62;20414;-65
2023/08/21 08:25:57;0.00;0.00;0.62;0.00;0.00;0.62;2.30;1.60;;;33.00;29.80;;;;;;2220606;62;20767;-60
2023/08/21 08:28:41;0.00;0.00;0.62;0.00;0.00;0.62;4.83;1.70;;;33.00;29.80;;;;;;2220180;62;20988;-63
2023/08/21 08:31:27;0.00;0.00;0.62;0.00;0.00;0.62;1.50;1.30;;;32.90;29.80;;;;;;2220976;62;20374;-61
2023/08/21 08:34:13;0.00;0.00;0.62;0.00;0.00;0.62;2.20;1.50;;;33.00;29.80;;;;;;2220404;62;20458;-61
2023/08/21 08:36:57;0.00;0.00;0.62;0.00;0.00;0.62;3.60;1.40;;;33.00;29.80;;;;;;2220248;62;20374;-60
2023/08/21 08:39:42;0.00;0.00;0.62;0.00;0.00;0.62;2.03;1.43;;;33.00;29.80;;;;;;2220895;62;20419;-61
2023/08/21 08:42:26;0.00;0.00;0.62;0.00;0.00;0.62;2.27;1.17;;;33.00;29.80;;;;;;2220747;62;20940;-59
2023/08/21 08:45:14;0.00;0.00;0.62;0.00;0.00;0.62;2.47;1.50;;;33.00;29.80;;;;;;2219985;62;20398;-62
2023/08/21 08:48:00;0.00;0.00;0.62;0.00;0.00;0.62;4.17;1.80;;;33.00;29.80;;;;;;2221053;62;20410;-63
2023/08/21 08:50:48;0.00;0.00;0.62;0.00;0.00;0.62;2.07;1.30;;;33.00;29.80;;;;;;2220549;62;20394;-63
2023/08/21 08:53:33;0.00;0.00;0.62;0.00;0.00;0.62;3.20;1.70;;;33.00;29.80;;;;;;2219975;62;20545;-62
2023/08/21 08:56:18;0.00;0.00;0.62;0.00;0.00;0.62;2.03;1.27;;;33.00;29.90;;;;;;2221001;62;20899;-61
2023/08/21 08:59:05;0.00;0.00;0.62;0.00;0.00;0.62;2.20;1.10;;;33.00;29.90;;;;;;2220172;62;20366;-62
2023/08/21 09:01:50;0.00;0.00;0.62;0.00;0.00;0.62;3.03;1.50;;;33.00;29.80;;;;;;2220875;62;20414;-65
2023/08/21 09:04:35;0.00;0.00;0.62;0.00;0.00;0.62;3.20;1.80;;;33.00;29.80;;;;;;2220250;62;20486;-62
2023/08/21 09:07:21;0.00;0.00;0.62;0.00;0.00;0.62;2.63;1.53;;;33.00;29.90;;;;;;2220131;62;20944;-61
2023/08/21 09:10:14;0.00;0.00;0.62;0.00;0.00;0.62;2.33;1.40;;;33.00;29.80;;;;;;2220678;62;21011;-62
2023/08/21 09:13:01;0.00;0.00;0.62;0.00;0.00;0.62;2.50;1.50;;;33.00;29.80;;;;;;2220379;62;20377;-62
2023/08/21 09:15:52;0.00;0.00;0.62;0.00;0.00;0.62;2.60;1.60;;;33.00;29.90;;;;;;2220625;62;20418;-62
2023/08/21 09:18:38;0.00;0.00;0.62;0.00;0.00;0.62;3.13;1.70;;;33.00;29.90;;;;;;2220881;62;20389;-62
2023/08/21 09:21:24;0.00;0.00;0.62;0.00;0.00;0.62;2.20;1.27;;;33.00;29.80;;;;;;2219998;62;20390;-61
2023/08/21 09:24:10;0.00;0.00;0.62;0.00;0.00;0.62;1.80;1.17;;;33.00;29.90;;;;;;2220468;62;20934;-62
2023/08/21 09:26:56;0.00;0.00;0.62;0.00;0.00;0.62;2.17;1.50;;;33.00;29.90;;;;;;2220518;62;20390;-62
2023/08/21 09:29:41;0.00;0.00;0.62;0.00;0.00;0.62;2.10;1.40;;;33.00;29.80;;;;;;2219569;62;20812;-61
2023/08/21 09:32:26;0.00;0.00;0.62;0.00;0.00;0.62;2.00;1.40;;;33.00;29.80;;;;;;2220668;62;20374;-65
2023/08/21 09:35:14;0.00;0.00;0.62;0.00;0.00;0.62;2.43;1.57;;;33.00;29.80;;;;;;2219695;62;20438;-62
2023/08/21 09:37:59;0.00;0.00;0.62;0.00;0.00;0.62;2.60;1.50;;;33.00;29.80;;;;;;2220727;62;20374;-62
2023/08/21 09:40:51;0.00;0.00;0.62;0.00;0.00;0.62;3.47;1.40;;;33.00;29.80;;;;;;2220755;62;20378;-62
2023/08/21 09:43:42;0.00;0.00;0.62;0.00;0.00;0.62;2.33;1.60;;;33.00;29.80;;;;;;2219473;62;20382;-61
2023/08/21 09:46:28;0.00;0.00;0.62;0.00;0.00;0.62;1.90;1.07;;;33.00;29.80;;;;;;2220608;62;20440;-62
2023/08/21 09:49:14;0.00;0.00;0.62;0.00;0.00;0.62;2.50;1.53;;;33.00;29.80;;;;;;2220414;62;20414;-63
2023/08/21 09:52:00;0.00;0.00;0.62;0.00;0.00;0.62;2.40;1.30;;;33.00;29.80;;;;;;2220193;62;20466;-61
2023/08/21 09:54:45;0.00;0.00;0.62;0.00;0.00;0.62;2.30;1.60;;;33.00;29.80;;;;;;2219970;62;20389;-61
2023/08/21 09:57:32;0.00;0.00;0.62;0.00;0.00;0.62;1.63;1.13;;;33.00;29.80;;;;;;2220211;62;20373;-61
2023/08/21 10:00:20;0.00;0.00;0.62;0.00;0.00;0.62;2.10;1.40;;;33.10;30.30;;;;;;2220765;62;20370;-62
2023/08/21 10:03:09;0.00;0.00;0.62;0.00;0.00;0.62;2.13;1.27;;;33.10;29.70;;;;;;2220194;62;20413;-60
2023/08/21 10:05:57;0.00;0.00;0.62;0.00;0.00;0.62;2.43;1.60;;;33.10;29.70;;;;;;2219882;62;20397;-61
2023/08/21 10:08:45;0.00;0.00;0.62;0.00;0.00;0.62;1.90;1.43;;;33.10;29.70;;;;;;2220374;62;20426;-61
2023/08/21 10:11:31;0.00;0.00;0.62;0.00;0.00;0.62;1.80;1.00;;;33.10;29.70;;;;;;2220653;62;20417;-65
2023/08/21 10:14:18;0.00;0.00;0.62;0.00;0.00;0.62;1.90;1.50;;;33.10;29.70;;;;;;2219962;62;20389;-62
2023/08/21 10:17:05;0.00;0.00;0.62;0.00;0.00;0.62;1.90;1.30;;;33.10;29.60;;;;;;2220572;62;20497;-62
2023/08/21 10:19:52;0.00;0.00;0.62;0.00;0.00;0.62;2.30;1.70;;;33.10;29.60;;;;;;2220871;62;20372;-61
2023/08/21 10:22:45;0.00;0.00;0.62;0.00;0.00;0.62;1.93;1.30;;;33.10;29.60;;;;;;2221100;62;20443;-61
2023/08/21 10:25:29;0.00;0.00;0.62;0.00;0.00;0.62;2.20;1.20;;;33.10;29.60;;;;;;2221321;62;20478;-62
2023/08/21 10:28:14;0.00;0.00;0.62;0.00;0.00;0.62;2.33;1.20;;;33.10;29.60;;;;;;2220575;62;20369;-58
2023/08/21 10:31:31;0.00;0.00;0.62;0.00;0.00;0.62;2.00;1.40;;;33.10;29.60;;;;;;2221195;62;20426;-62
2023/08/21 10:34:19;0.00;0.00;0.62;0.00;0.00;0.62;1.93;1.10;;;33.10;29.60;;;;;;2220640;62;20427;-62
2023/08/21 10:37:07;0.00;0.00;0.62;0.00;0.00;0.62;1.60;1.00;;;33.10;29.60;;;;;;2221274;62;20377;-61
2023/08/21 10:39:59;0.00;0.00;0.62;0.00;0.00;0.62;1.63;1.30;;;33.10;30.00;;;;;;2221028;62;20477;-60
2023/08/21 10:42:43;0.00;0.00;0.62;0.00;0.00;0.62;3.20;1.30;;;33.10;29.50;;;;;;2220310;62;20878;-60
2023/08/21 10:45:31;0.00;0.00;0.62;0.00;0.00;0.62;2.47;1.30;;;33.10;30.00;;;;;;2220753;62;20434;-61
2023/08/21 10:48:17;0.00;0.00;0.62;0.00;0.00;0.62;1.90;1.30;;;33.10;29.50;;;;;;2221062;62;20818;-62
2023/08/21 10:51:04;0.00;0.00;0.62;0.00;0.00;0.62;2.17;1.10;;;33.10;29.50;;;;;;2219721;62;20932;-65
2023/08/21 10:53:48;0.00;0.00;0.62;0.00;0.00;0.62;1.80;1.10;;;33.10;29.50;;;;;;2220846;62;20401;-62